Terminal Aerodrome Forecast
Issued by NWS

Current Version | Previous Version | Graphics & Text | Print | Product List | Glossary On
Versions: 1 2 3 4 5 6 7 8 9 10 11 12 13 14 15 16 17 18 19 20 21 22 23 24 25 26 27 28
000
FTUS41 KRLX 261900 AAA
TAFCKB
TAF AMD
KCKB 261930Z 2620/2718 32010G18KT 5SM RA BR BKN015
     FM262000 33009G16KT P6SM OVC010
     FM262100 33009G16KT P6SM OVC008
     FM262300 28004KT 3SM -RA BR OVC008
     FM270500 32004KT P6SM OVC008
     FM271300 32004KT P6SM BKN015
     FM271500 32005KT P6SM OVC025=

USA.gov is the U.S. government's official web portal to all federal, state and local government web resources and services.